sensor_id;sensor_type;location;lat;lon;timestamp;P1;durP1;ratioP1;P2;durP2;ratioP2
71236;SDS011;58984;51.960;5.582;2022-08-06T00:00:39;4.65;;;2.20;;
71236;SDS011;58984;51.960;5.582;2022-08-06T00:03:06;3.22;;;1.92;;
71236;SDS011;58984;51.960;5.582;2022-08-06T00:05:32;5.00;;;1.98;;
71236;SDS011;58984;51.960;5.582;2022-08-06T00:07:58;4.82;;;1.75;;
71236;SDS011;58984;51.960;5.582;2022-08-06T00:10:24;3.45;;;1.50;;
71236;SDS011;58984;51.960;5.582;2022-08-06T00:12:50;5.90;;;2.03;;
71236;SDS011;58984;51.960;5.582;2022-08-06T00:15:16;3.83;;;2.13;;
71236;SDS011;58984;51.960;5.582;2022-08-06T00:17:43;4.38;;;2.10;;
71236;SDS011;58984;51.960;5.582;2022-08-06T00:20:10;6.07;;;1.80;;
71236;SDS011;58984;51.960;5.582;2022-08-06T00:22:39;3.30;;;2.00;;
71236;SDS011;58984;51.960;5.582;2022-08-06T00:25:05;4.32;;;2.40;;
71236;SDS011;58984;51.960;5.582;2022-08-06T00:27:32;4.70;;;2.17;;
71236;SDS011;58984;51.960;5.582;2022-08-06T00:29:58;4.80;;;2.10;;
71236;SDS011;58984;51.960;5.582;2022-08-06T00:32:24;7.50;;;2.40;;
71236;SDS011;58984;51.960;5.582;2022-08-06T00:34:49;4.47;;;2.20;;
71236;SDS011;58984;51.960;5.582;2022-08-06T00:37:15;5.97;;;2.38;;
71236;SDS011;58984;51.960;5.582;2022-08-06T00:39:40;2.60;;;1.70;;
71236;SDS011;58984;51.960;5.582;2022-08-06T00:42:06;8.00;;;2.38;;
71236;SDS011;58984;51.960;5.582;2022-08-06T00:44:32;3.50;;;2.20;;
71236;SDS011;58984;51.960;5.582;2022-08-06T00:46:58;6.97;;;2.55;;
71236;SDS011;58984;51.960;5.582;2022-08-06T00:49:23;4.75;;;2.30;;
71236;SDS011;58984;51.960;5.582;2022-08-06T00:51:49;4.93;;;2.47;;
71236;SDS011;58984;51.960;5.582;2022-08-06T00:54:15;5.80;;;2.63;;
71236;SDS011;58984;51.960;5.582;2022-08-06T00:56:40;4.55;;;2.80;;
71236;SDS011;58984;51.960;5.582;2022-08-06T00:59:06;6.10;;;2.42;;
71236;SDS011;58984;51.960;5.582;2022-08-06T01:01:32;4.72;;;2.78;;
71236;SDS011;58984;51.960;5.582;2022-08-06T01:03:58;4.30;;;2.53;;
71236;SDS011;58984;51.960;5.582;2022-08-06T01:06:23;8.38;;;3.13;;
71236;SDS011;58984;51.960;5.582;2022-08-06T01:08:49;6.78;;;2.53;;
71236;SDS011;58984;51.960;5.582;2022-08-06T01:11:15;4.95;;;2.67;;
71236;SDS011;58984;51.960;5.582;2022-08-06T01:13:40;5.00;;;2.65;;
71236;SDS011;58984;51.960;5.582;2022-08-06T01:16:10;3.88;;;2.10;;
71236;SDS011;58984;51.960;5.582;2022-08-06T01:19:16;5.95;;;2.47;;
71236;SDS011;58984;51.960;5.582;2022-08-06T01:27:49;3.05;;;2.10;;
71236;SDS011;58984;51.960;5.582;2022-08-06T01:30:30;7.40;;;2.55;;
71236;SDS011;58984;51.960;5.582;2022-08-06T01:33:07;8.60;;;2.20;;
71236;SDS011;58984;51.960;5.582;2022-08-06T01:35:38;3.00;;;2.25;;
71236;SDS011;58984;51.960;5.582;2022-08-06T01:38:08;5.60;;;2.85;;
71236;SDS011;58984;51.960;5.582;2022-08-06T01:40:36;5.60;;;2.58;;
71236;SDS011;58984;51.960;5.582;2022-08-06T01:43:05;5.57;;;2.60;;
71236;SDS011;58984;51.960;5.582;2022-08-06T01:45:34;7.95;;;2.85;;
71236;SDS011;58984;51.960;5.582;2022-08-06T01:48:03;6.20;;;2.67;;
71236;SDS011;58984;51.960;5.582;2022-08-06T01:50:34;5.00;;;2.45;;
71236;SDS011;58984;51.960;5.582;2022-08-06T01:53:03;7.32;;;2.47;;
71236;SDS011;58984;51.960;5.582;2022-08-06T01:55:31;4.55;;;2.47;;
71236;SDS011;58984;51.960;5.582;2022-08-06T01:58:01;4.82;;;2.70;;
71236;SDS011;58984;51.960;5.582;2022-08-06T02:00:28;4.50;;;2.70;;
71236;SDS011;58984;51.960;5.582;2022-08-06T02:02:57;8.00;;;3.08;;
71236;SDS011;58984;51.960;5.582;2022-08-06T02:05:25;6.75;;;2.90;;
71236;SDS011;58984;51.960;5.582;2022-08-06T02:07:51;6.10;;;2.42;;
71236;SDS011;58984;51.960;5.582;2022-08-06T02:10:19;3.80;;;2.60;;
71236;SDS011;58984;51.960;5.582;2022-08-06T02:12:47;7.10;;;2.60;;
71236;SDS011;58984;51.960;5.582;2022-08-06T02:15:14;6.07;;;2.80;;
71236;SDS011;58984;51.960;5.582;2022-08-06T02:17:49;4.30;;;2.70;;
71236;SDS011;58984;51.960;5.582;2022-08-06T02:20:17;6.47;;;2.75;;
71236;SDS011;58984;51.960;5.582;2022-08-06T02:22:47;7.25;;;2.92;;
71236;SDS011;58984;51.960;5.582;2022-08-06T02:25:14;3.13;;;2.25;;
71236;SDS011;58984;51.960;5.582;2022-08-06T02:27:42;4.80;;;2.55;;
71236;SDS011;58984;51.960;5.582;2022-08-06T02:30:11;5.07;;;2.97;;
71236;SDS011;58984;51.960;5.582;2022-08-06T02:32:38;5.70;;;2.53;;
71236;SDS011;58984;51.960;5.582;2022-08-06T02:35:04;4.45;;;2.30;;
71236;SDS011;58984;51.960;5.582;2022-08-06T02:37:32;4.65;;;2.60;;
71236;SDS011;58984;51.960;5.582;2022-08-06T02:40:35;5.20;;;2.30;;
71236;SDS011;58984;51.960;5.582;2022-08-06T02:43:30;4.65;;;2.50;;
71236;SDS011;58984;51.960;5.582;2022-08-06T02:48:23;4.22;;;2.20;;
71236;SDS011;58984;51.960;5.582;2022-08-06T02:50:52;4.32;;;2.30;;
71236;SDS011;58984;51.960;5.582;2022-08-06T02:53:21;3.83;;;2.15;;
71236;SDS011;58984;51.960;5.582;2022-08-06T02:55:59;6.13;;;2.13;;
71236;SDS011;58984;51.960;5.582;2022-08-06T02:58:38;3.53;;;2.00;;
71236;SDS011;58984;51.960;5.582;2022-08-06T03:01:10;3.65;;;2.58;;
71236;SDS011;58984;51.960;5.582;2022-08-06T03:03:39;4.35;;;2.22;;
71236;SDS011;58984;51.960;5.582;2022-08-06T03:06:07;5.07;;;2.40;;
71236;SDS011;58984;51.960;5.582;2022-08-06T03:08:36;7.20;;;2.65;;
71236;SDS011;58984;51.960;5.582;2022-08-06T03:11:02;4.63;;;2.08;;
71236;SDS011;58984;51.960;5.582;2022-08-06T03:13:29;4.47;;;2.50;;
71236;SDS011;58984;51.960;5.582;2022-08-06T03:15:57;7.68;;;2.28;;
71236;SDS011;58984;51.960;5.582;2022-08-06T03:18:24;3.55;;;2.40;;
71236;SDS011;58984;51.960;5.582;2022-08-06T03:20:51;3.90;;;2.30;;
71236;SDS011;58984;51.960;5.582;2022-08-06T03:23:17;6.55;;;2.22;;
71236;SDS011;58984;51.960;5.582;2022-08-06T03:25:44;5.88;;;2.70;;
71236;SDS011;58984;51.960;5.582;2022-08-06T03:28:11;7.55;;;2.45;;
71236;SDS011;58984;51.960;5.582;2022-08-06T03:30:38;5.93;;;2.38;;
71236;SDS011;58984;51.960;5.582;2022-08-06T03:33:07;4.88;;;2.53;;
71236;SDS011;58984;51.960;5.582;2022-08-06T03:35:35;4.55;;;2.38;;
71236;SDS011;58984;51.960;5.582;2022-08-06T03:38:01;6.18;;;2.60;;
71236;SDS011;58984;51.960;5.582;2022-08-06T03:40:29;5.82;;;2.83;;
71236;SDS011;58984;51.960;5.582;2022-08-06T03:42:56;4.90;;;2.45;;
71236;SDS011;58984;51.960;5.582;2022-08-06T03:45:21;4.95;;;2.50;;
71236;SDS011;58984;51.960;5.582;2022-08-06T03:47:51;6.72;;;2.78;;
71236;SDS011;58984;51.960;5.582;2022-08-06T03:50:24;5.95;;;2.65;;
71236;SDS011;58984;51.960;5.582;2022-08-06T03:52:55;6.20;;;2.30;;
71236;SDS011;58984;51.960;5.582;2022-08-06T03:55:26;4.90;;;2.53;;
71236;SDS011;58984;51.960;5.582;2022-08-06T03:57:56;3.65;;;1.90;;
71236;SDS011;58984;51.960;5.582;2022-08-06T04:00:27;4.87;;;2.30;;
71236;SDS011;58984;51.960;5.582;2022-08-06T04:02:57;6.28;;;2.30;;
71236;SDS011;58984;51.960;5.582;2022-08-06T04:05:25;3.60;;;2.33;;
71236;SDS011;58984;51.960;5.582;2022-08-06T04:07:59;5.07;;;2.42;;
71236;SDS011;58984;51.960;5.582;2022-08-06T04:10:32;5.00;;;2.25;;
71236;SDS011;58984;51.960;5.582;2022-08-06T04:13:04;6.03;;;2.50;;
71236;SDS011;58984;51.960;5.582;2022-08-06T04:15:32;6.10;;;1.92;;
71236;SDS011;58984;51.960;5.582;2022-08-06T04:17:59;4.82;;;2.50;;
71236;SDS011;58984;51.960;5.582;2022-08-06T04:20:25;4.65;;;2.33;;
71236;SDS011;58984;51.960;5.582;2022-08-06T04:22:53;3.88;;;1.92;;
71236;SDS011;58984;51.960;5.582;2022-08-06T04:25:18;2.75;;;1.98;;
71236;SDS011;58984;51.960;5.582;2022-08-06T04:27:44;4.10;;;2.05;;
71236;SDS011;58984;51.960;5.582;2022-08-06T04:30:13;4.97;;;1.95;;
71236;SDS011;58984;51.960;5.582;2022-08-06T04:32:39;5.97;;;2.30;;
71236;SDS011;58984;51.960;5.582;2022-08-06T04:35:07;2.60;;;2.20;;
71236;SDS011;58984;51.960;5.582;2022-08-06T04:37:34;3.42;;;2.17;;
71236;SDS011;58984;51.960;5.582;2022-08-06T04:40:00;3.83;;;2.00;;
71236;SDS011;58984;51.960;5.582;2022-08-06T04:42:26;7.13;;;2.20;;
71236;SDS011;58984;51.960;5.582;2022-08-06T04:44:52;4.82;;;2.40;;
71236;SDS011;58984;51.960;5.582;2022-08-06T04:47:18;3.45;;;2.63;;
71236;SDS011;58984;51.960;5.582;2022-08-06T04:49:44;5.95;;;3.10;;
71236;SDS011;58984;51.960;5.582;2022-08-06T04:52:20;4.57;;;3.08;;
71236;SDS011;58984;51.960;5.582;2022-08-06T04:54:46;7.10;;;2.92;;
71236;SDS011;58984;51.960;5.582;2022-08-06T04:57:12;6.65;;;3.42;;
71236;SDS011;58984;51.960;5.582;2022-08-06T04:59:37;4.32;;;3.08;;
71236;SDS011;58984;51.960;5.582;2022-08-06T05:02:03;5.30;;;2.92;;
71236;SDS011;58984;51.960;5.582;2022-08-06T05:04:29;6.28;;;2.97;;
71236;SDS011;58984;51.960;5.582;2022-08-06T05:06:57;4.53;;;2.85;;
71236;SDS011;58984;51.960;5.582;2022-08-06T05:09:30;4.32;;;3.00;;
71236;SDS011;58984;51.960;5.582;2022-08-06T05:12:06;4.68;;;2.85;;
71236;SDS011;58984;51.960;5.582;2022-08-06T05:15:18;3.35;;;2.33;;
71236;SDS011;58984;51.960;5.582;2022-08-06T05:17:41;5.38;;;3.08;;
71236;SDS011;58984;51.960;5.582;2022-08-06T05:20:20;5.97;;;2.53;;
71236;SDS011;58984;51.960;5.582;2022-08-06T05:22:47;3.38;;;2.35;;
71236;SDS011;58984;51.960;5.582;2022-08-06T05:25:32;5.93;;;3.33;;
71236;SDS011;58984;51.960;5.582;2022-08-06T05:28:00;4.72;;;2.80;;
71236;SDS011;58984;51.960;5.582;2022-08-06T05:30:26;4.18;;;3.10;;
71236;SDS011;58984;51.960;5.582;2022-08-06T05:32:52;7.57;;;3.30;;
71236;SDS011;58984;51.960;5.582;2022-08-06T05:35:18;4.70;;;2.78;;
71236;SDS011;58984;51.960;5.582;2022-08-06T05:37:43;5.25;;;3.05;;
71236;SDS011;58984;51.960;5.582;2022-08-06T05:40:09;5.82;;;3.13;;
71236;SDS011;58984;51.960;5.582;2022-08-06T05:42:35;5.20;;;2.75;;
71236;SDS011;58984;51.960;5.582;2022-08-06T05:45:01;13.55;;;3.50;;
71236;SDS011;58984;51.960;5.582;2022-08-06T05:47:27;17.80;;;3.72;;
71236;SDS011;58984;51.960;5.582;2022-08-06T05:50:20;7.25;;;3.08;;
71236;SDS011;58984;51.960;5.582;2022-08-06T05:52:47;6.28;;;2.67;;
71236;SDS011;58984;51.960;5.582;2022-08-06T05:58:05;6.63;;;2.53;;
71236;SDS011;58984;51.960;5.582;2022-08-06T06:00:37;4.03;;;2.03;;
71236;SDS011;58984;51.960;5.582;2022-08-06T06:03:04;3.13;;;2.30;;
71236;SDS011;58984;51.960;5.582;2022-08-06T06:05:31;6.90;;;2.22;;
71236;SDS011;58984;51.960;5.582;2022-08-06T06:07:57;4.35;;;2.05;;
71236;SDS011;58984;51.960;5.582;2022-08-06T06:10:24;5.30;;;2.35;;
71236;SDS011;58984;51.960;5.582;2022-08-06T06:12:50;9.38;;;2.38;;
71236;SDS011;58984;51.960;5.582;2022-08-06T06:15:17;3.85;;;1.95;;
71236;SDS011;58984;51.960;5.582;2022-08-06T06:18:06;3.85;;;1.63;;
71236;SDS011;58984;51.960;5.582;2022-08-06T06:20:52;4.10;;;1.70;;
71236;SDS011;58984;51.960;5.582;2022-08-06T06:23:51;3.10;;;1.80;;
71236;SDS011;58984;51.960;5.582;2022-08-06T06:35:02;5.30;;;1.85;;
71236;SDS011;58984;51.960;5.582;2022-08-06T06:43:00;2.78;;;1.90;;
71236;SDS011;58984;51.960;5.582;2022-08-06T06:45:37;4.13;;;1.40;;
71236;SDS011;58984;51.960;5.582;2022-08-06T06:48:28;3.78;;;1.48;;
71236;SDS011;58984;51.960;5.582;2022-08-06T06:51:03;2.47;;;1.50;;
71236;SDS011;58984;51.960;5.582;2022-08-06T06:53:34;4.75;;;1.77;;
71236;SDS011;58984;51.960;5.582;2022-08-06T06:56:05;5.93;;;1.60;;
71236;SDS011;58984;51.960;5.582;2022-08-06T06:58:35;2.20;;;1.55;;
71236;SDS011;58984;51.960;5.582;2022-08-06T07:01:04;2.63;;;1.40;;
71236;SDS011;58984;51.960;5.582;2022-08-06T07:03:33;3.85;;;1.23;;
71236;SDS011;58984;51.960;5.582;2022-08-06T07:06:03;2.78;;;1.40;;
71236;SDS011;58984;51.960;5.582;2022-08-06T07:08:33;3.15;;;1.30;;
71236;SDS011;58984;51.960;5.582;2022-08-06T07:11:02;1.58;;;1.27;;
71236;SDS011;58984;51.960;5.582;2022-08-06T07:13:30;3.35;;;1.20;;
71236;SDS011;58984;51.960;5.582;2022-08-06T07:15:56;2.17;;;1.17;;
71236;SDS011;58984;51.960;5.582;2022-08-06T07:18:23;2.67;;;1.90;;
71236;SDS011;58984;51.960;5.582;2022-08-06T07:20:51;3.25;;;1.83;;
71236;SDS011;58984;51.960;5.582;2022-08-06T07:23:18;2.95;;;1.77;;
71236;SDS011;58984;51.960;5.582;2022-08-06T07:25:45;3.67;;;1.90;;
71236;SDS011;58984;51.960;5.582;2022-08-06T07:28:13;2.10;;;1.52;;
71236;SDS011;58984;51.960;5.582;2022-08-06T07:30:40;5.10;;;2.22;;
71236;SDS011;58984;51.960;5.582;2022-08-06T07:33:07;6.57;;;2.17;;
71236;SDS011;58984;51.960;5.582;2022-08-06T07:35:34;3.47;;;1.80;;
71236;SDS011;58984;51.960;5.582;2022-08-06T07:38:02;3.15;;;1.63;;
71236;SDS011;58984;51.960;5.582;2022-08-06T07:40:34;3.95;;;2.08;;
71236;SDS011;58984;51.960;5.582;2022-08-06T07:43:25;2.80;;;1.70;;
71236;SDS011;58984;51.960;5.582;2022-08-06T07:45:55;2.08;;;1.60;;
71236;SDS011;58984;51.960;5.582;2022-08-06T07:48:24;3.88;;;1.52;;
71236;SDS011;58984;51.960;5.582;2022-08-06T07:51:07;2.15;;;1.45;;
71236;SDS011;58984;51.960;5.582;2022-08-06T07:53:34;1.75;;;1.50;;
71236;SDS011;58984;51.960;5.582;2022-08-06T07:56:06;2.00;;;1.50;;
71236;SDS011;58984;51.960;5.582;2022-08-06T07:58:33;2.00;;;1.38;;
71236;SDS011;58984;51.960;5.582;2022-08-06T08:01:00;2.35;;;1.50;;
71236;SDS011;58984;51.960;5.582;2022-08-06T08:03:26;4.57;;;1.73;;
71236;SDS011;58984;51.960;5.582;2022-08-06T08:06:11;4.75;;;1.80;;
71236;SDS011;58984;51.960;5.582;2022-08-06T08:08:48;1.20;;;1.10;;
71236;SDS011;58984;51.960;5.582;2022-08-06T08:11:16;3.83;;;1.77;;
71236;SDS011;58984;51.960;5.582;2022-08-06T08:13:43;2.05;;;1.23;;
71236;SDS011;58984;51.960;5.582;2022-08-06T08:16:09;3.00;;;1.40;;
71236;SDS011;58984;51.960;5.582;2022-08-06T08:18:38;2.50;;;1.08;;
71236;SDS011;58984;51.960;5.582;2022-08-06T08:21:04;2.80;;;1.58;;
71236;SDS011;58984;51.960;5.582;2022-08-06T08:23:32;3.30;;;1.42;;
71236;SDS011;58984;51.960;5.582;2022-08-06T08:26:00;3.00;;;1.20;;
71236;SDS011;58984;51.960;5.582;2022-08-06T08:28:27;1.83;;;1.40;;
71236;SDS011;58984;51.960;5.582;2022-08-06T08:30:54;3.83;;;1.70;;
71236;SDS011;58984;51.960;5.582;2022-08-06T08:33:23;5.22;;;2.97;;
71236;SDS011;58984;51.960;5.582;2022-08-06T08:35:49;7.07;;;2.70;;
71236;SDS011;58984;51.960;5.582;2022-08-06T08:38:14;4.82;;;2.63;;
71236;SDS011;58984;51.960;5.582;2022-08-06T08:40:40;5.07;;;2.58;;
71236;SDS011;58984;51.960;5.582;2022-08-06T08:43:07;6.95;;;2.60;;
71236;SDS011;58984;51.960;5.582;2022-08-06T08:45:37;4.68;;;2.58;;
71236;SDS011;58984;51.960;5.582;2022-08-06T08:48:04;5.65;;;1.95;;
71236;SDS011;58984;51.960;5.582;2022-08-06T08:50:31;3.65;;;1.90;;
71236;SDS011;58984;51.960;5.582;2022-08-06T08:53:03;3.35;;;2.25;;
71236;SDS011;58984;51.960;5.582;2022-08-06T08:55:33;2.53;;;1.70;;
71236;SDS011;58984;51.960;5.582;2022-08-06T08:57:59;4.65;;;2.00;;
71236;SDS011;58984;51.960;5.582;2022-08-06T09:00:26;5.63;;;1.67;;
71236;SDS011;58984;51.960;5.582;2022-08-06T09:02:52;3.20;;;1.50;;
71236;SDS011;58984;51.960;5.582;2022-08-06T09:05:18;3.53;;;1.65;;
71236;SDS011;58984;51.960;5.582;2022-08-06T09:07:44;3.88;;;1.45;;
71236;SDS011;58984;51.960;5.582;2022-08-06T09:10:10;1.60;;;1.30;;
71236;SDS011;58984;51.960;5.582;2022-08-06T09:12:36;5.22;;;1.60;;
71236;SDS011;58984;51.960;5.582;2022-08-06T09:15:02;4.05;;;1.52;;
71236;SDS011;58984;51.960;5.582;2022-08-06T09:17:28;1.85;;;1.13;;
71236;SDS011;58984;51.960;5.582;2022-08-06T09:19:55;2.88;;;1.20;;
71236;SDS011;58984;51.960;5.582;2022-08-06T09:22:21;2.72;;;1.27;;
71236;SDS011;58984;51.960;5.582;2022-08-06T09:24:46;2.60;;;1.50;;
71236;SDS011;58984;51.960;5.582;2022-08-06T09:27:13;2.08;;;1.23;;
71236;SDS011;58984;51.960;5.582;2022-08-06T09:29:50;1.90;;;1.08;;
71236;SDS011;58984;51.960;5.582;2022-08-06T09:37:46;3.83;;;1.15;;
71236;SDS011;58984;51.960;5.582;2022-08-06T09:40:16;1.67;;;1.00;;
71236;SDS011;58984;51.960;5.582;2022-08-06T09:42:44;5.57;;;1.40;;
71236;SDS011;58984;51.960;5.582;2022-08-06T09:45:13;1.42;;;1.00;;
71236;SDS011;58984;51.960;5.582;2022-08-06T09:47:41;2.17;;;1.20;;
71236;SDS011;58984;51.960;5.582;2022-08-06T09:50:07;2.58;;;1.30;;
71236;SDS011;58984;51.960;5.582;2022-08-06T09:52:33;1.10;;;0.98;;
71236;SDS011;58984;51.960;5.582;2022-08-06T09:54:59;2.50;;;0.90;;
71236;SDS011;58984;51.960;5.582;2022-08-06T09:57:26;1.13;;;1.00;;
71236;SDS011;58984;51.960;5.582;2022-08-06T10:00:05;1.42;;;1.08;;
71236;SDS011;58984;51.960;5.582;2022-08-06T10:02:32;2.95;;;1.35;;
71236;SDS011;58984;51.960;5.582;2022-08-06T10:05:08;2.88;;;1.80;;
71236;SDS011;58984;51.960;5.582;2022-08-06T10:07:35;2.97;;;1.75;;
71236;SDS011;58984;51.960;5.582;2022-08-06T10:10:01;3.95;;;1.90;;
71236;SDS011;58984;51.960;5.582;2022-08-06T10:12:27;4.15;;;2.10;;
71236;SDS011;58984;51.960;5.582;2022-08-06T10:14:52;2.47;;;1.50;;
71236;SDS011;58984;51.960;5.582;2022-08-06T10:17:20;3.47;;;1.63;;
71236;SDS011;58984;51.960;5.582;2022-08-06T10:19:47;2.25;;;1.45;;
71236;SDS011;58984;51.960;5.582;2022-08-06T10:22:28;2.03;;;1.55;;
71236;SDS011;58984;51.960;5.582;2022-08-06T10:24:56;2.35;;;1.40;;
71236;SDS011;58984;51.960;5.582;2022-08-06T10:27:29;1.73;;;1.30;;
71236;SDS011;58984;51.960;5.582;2022-08-06T10:30:02;5.15;;;1.55;;
71236;SDS011;58984;51.960;5.582;2022-08-06T10:35:20;2.67;;;1.25;;
71236;SDS011;58984;51.960;5.582;2022-08-06T10:37:49;2.70;;;1.45;;
71236;SDS011;58984;51.960;5.582;2022-08-06T10:40:23;2.58;;;1.45;;
71236;SDS011;58984;51.960;5.582;2022-08-06T10:42:50;1.50;;;1.00;;
71236;SDS011;58984;51.960;5.582;2022-08-06T10:45:17;1.85;;;1.25;;
71236;SDS011;58984;51.960;5.582;2022-08-06T10:47:43;1.05;;;0.88;;
71236;SDS011;58984;51.960;5.582;2022-08-06T10:50:11;1.33;;;0.98;;
71236;SDS011;58984;51.960;5.582;2022-08-06T10:52:38;1.10;;;1.00;;
71236;SDS011;58984;51.960;5.582;2022-08-06T10:55:05;1.35;;;0.95;;
71236;SDS011;58984;51.960;5.582;2022-08-06T10:57:31;1.77;;;1.10;;
71236;SDS011;58984;51.960;5.582;2022-08-06T10:59:57;3.30;;;1.08;;
71236;SDS011;58984;51.960;5.582;2022-08-06T11:02:28;1.08;;;0.90;;
71236;SDS011;58984;51.960;5.582;2022-08-06T11:05:08;1.42;;;0.88;;
71236;SDS011;58984;51.960;5.582;2022-08-06T11:10:43;1.98;;;0.70;;
71236;SDS011;58984;51.960;5.582;2022-08-06T11:16:03;2.22;;;0.90;;
71236;SDS011;58984;51.960;5.582;2022-08-06T11:18:29;2.55;;;0.80;;
71236;SDS011;58984;51.960;5.582;2022-08-06T11:20:55;1.50;;;0.90;;
71236;SDS011;58984;51.960;5.582;2022-08-06T11:23:26;1.70;;;0.80;;
71236;SDS011;58984;51.960;5.582;2022-08-06T11:25:54;1.65;;;0.70;;
71236;SDS011;58984;51.960;5.582;2022-08-06T11:31:28;1.52;;;0.80;;
71236;SDS011;58984;51.960;5.582;2022-08-06T11:34:00;0.60;;;0.60;;
71236;SDS011;58984;51.960;5.582;2022-08-06T11:36:27;3.45;;;0.73;;
71236;SDS011;58984;51.960;5.582;2022-08-06T11:39:07;0.93;;;0.70;;
71236;SDS011;58984;51.960;5.582;2022-08-06T11:41:42;1.45;;;0.80;;
71236;SDS011;58984;51.960;5.582;2022-08-06T11:44:10;0.73;;;0.70;;
71236;SDS011;58984;51.960;5.582;2022-08-06T11:46:38;0.88;;;0.77;;
71236;SDS011;58984;51.960;5.582;2022-08-06T11:49:12;0.98;;;0.80;;
71236;SDS011;58984;51.960;5.582;2022-08-06T11:52:01;2.05;;;1.00;;
71236;SDS011;58984;51.960;5.582;2022-08-06T11:54:27;4.78;;;1.10;;
71236;SDS011;58984;51.960;5.582;2022-08-06T11:59:33;1.90;;;1.10;;
71236;SDS011;58984;51.960;5.582;2022-08-06T12:02:07;1.13;;;0.80;;
71236;SDS011;58984;51.960;5.582;2022-08-06T12:10:01;1.73;;;1.00;;
71236;SDS011;58984;51.960;5.582;2022-08-06T12:12:35;1.33;;;0.80;;
71236;SDS011;58984;51.960;5.582;2022-08-06T12:15:48;1.27;;;0.68;;
71236;SDS011;58984;51.960;5.582;2022-08-06T12:20:30;1.20;;;0.85;;
71236;SDS011;58984;51.960;5.582;2022-08-06T12:23:00;2.20;;;0.70;;
71236;SDS011;58984;51.960;5.582;2022-08-06T12:25:31;1.48;;;0.50;;
71236;SDS011;58984;51.960;5.582;2022-08-06T12:27:58;1.63;;;0.55;;
71236;SDS011;58984;51.960;5.582;2022-08-06T12:30:24;1.00;;;0.82;;
71236;SDS011;58984;51.960;5.582;2022-08-06T12:32:58;0.60;;;0.60;;
71236;SDS011;58984;51.960;5.582;2022-08-06T12:35:25;0.85;;;0.45;;
71236;SDS011;58984;51.960;5.582;2022-08-06T12:37:51;1.27;;;0.77;;
71236;SDS011;58984;51.960;5.582;2022-08-06T12:40:18;2.28;;;0.60;;
71236;SDS011;58984;51.960;5.582;2022-08-06T12:45:31;0.68;;;0.65;;
71236;SDS011;58984;51.960;5.582;2022-08-06T12:47:58;0.75;;;0.60;;
71236;SDS011;58984;51.960;5.582;2022-08-06T12:50:24;1.25;;;0.70;;
71236;SDS011;58984;51.960;5.582;2022-08-06T12:53:06;1.35;;;0.80;;
71236;SDS011;58984;51.960;5.582;2022-08-06T12:55:35;1.33;;;0.57;;
71236;SDS011;58984;51.960;5.582;2022-08-06T12:58:11;0.50;;;0.50;;
71236;SDS011;58984;51.960;5.582;2022-08-06T13:00:39;0.50;;;0.50;;
71236;SDS011;58984;51.960;5.582;2022-08-06T13:03:06;0.52;;;0.50;;
71236;SDS011;58984;51.960;5.582;2022-08-06T13:05:33;1.20;;;0.60;;
71236;SDS011;58984;51.960;5.582;2022-08-06T13:07:59;1.05;;;0.70;;
71236;SDS011;58984;51.960;5.582;2022-08-06T13:10:26;2.85;;;0.82;;
71236;SDS011;58984;51.960;5.582;2022-08-06T13:12:55;1.55;;;0.55;;
71236;SDS011;58984;51.960;5.582;2022-08-06T13:15:24;0.68;;;0.57;;
71236;SDS011;58984;51.960;5.582;2022-08-06T13:18:04;0.80;;;0.65;;
71236;SDS011;58984;51.960;5.582;2022-08-06T13:20:41;3.25;;;1.38;;
71236;SDS011;58984;51.960;5.582;2022-08-06T13:23:08;1.17;;;0.80;;
71236;SDS011;58984;51.960;5.582;2022-08-06T13:25:45;0.85;;;0.70;;
71236;SDS011;58984;51.960;5.582;2022-08-06T13:28:12;1.25;;;0.82;;
71236;SDS011;58984;51.960;5.582;2022-08-06T13:30:40;3.70;;;1.27;;
71236;SDS011;58984;51.960;5.582;2022-08-06T13:33:19;2.47;;;0.93;;
71236;SDS011;58984;51.960;5.582;2022-08-06T13:35:48;3.15;;;1.20;;
71236;SDS011;58984;51.960;5.582;2022-08-06T13:38:28;3.03;;;1.17;;
71236;SDS011;58984;51.960;5.582;2022-08-06T13:40:58;3.33;;;1.00;;
71236;SDS011;58984;51.960;5.582;2022-08-06T13:43:37;4.05;;;1.20;;
71236;SDS011;58984;51.960;5.582;2022-08-06T13:46:15;5.63;;;1.77;;
71236;SDS011;58984;51.960;5.582;2022-08-06T13:48:42;1.48;;;1.20;;
71236;SDS011;58984;51.960;5.582;2022-08-06T13:51:16;2.67;;;1.05;;
71236;SDS011;58984;51.960;5.582;2022-08-06T13:53:42;3.85;;;1.25;;
71236;SDS011;58984;51.960;5.582;2022-08-06T13:56:08;1.70;;;1.23;;
71236;SDS011;58984;51.960;5.582;2022-08-06T13:58:34;1.98;;;1.25;;
71236;SDS011;58984;51.960;5.582;2022-08-06T14:00:59;3.20;;;1.33;;
71236;SDS011;58984;51.960;5.582;2022-08-06T14:03:25;7.72;;;1.63;;
71236;SDS011;58984;51.960;5.582;2022-08-06T14:05:53;4.43;;;1.45;;
71236;SDS011;58984;51.960;5.582;2022-08-06T14:08:18;18.90;;;2.78;;
71236;SDS011;58984;51.960;5.582;2022-08-06T14:10:44;8.73;;;2.05;;
71236;SDS011;58984;51.960;5.582;2022-08-06T14:13:10;9.75;;;1.75;;
71236;SDS011;58984;51.960;5.582;2022-08-06T14:15:41;4.32;;;1.52;;
71236;SDS011;58984;51.960;5.582;2022-08-06T14:18:11;3.03;;;1.15;;
71236;SDS011;58984;51.960;5.582;2022-08-06T14:20:37;3.25;;;1.83;;
71236;SDS011;58984;51.960;5.582;2022-08-06T14:23:03;5.90;;;1.95;;
71236;SDS011;58984;51.960;5.582;2022-08-06T14:25:29;2.65;;;1.38;;
71236;SDS011;58984;51.960;5.582;2022-08-06T14:27:54;2.58;;;1.20;;
71236;SDS011;58984;51.960;5.582;2022-08-06T14:30:20;3.38;;;1.42;;
71236;SDS011;58984;51.960;5.582;2022-08-06T14:32:47;2.45;;;1.38;;
71236;SDS011;58984;51.960;5.582;2022-08-06T14:35:13;3.08;;;1.30;;
71236;SDS011;58984;51.960;5.582;2022-08-06T14:37:39;1.30;;;1.17;;
71236;SDS011;58984;51.960;5.582;2022-08-06T14:40:07;0.95;;;0.80;;
71236;SDS011;58984;51.960;5.582;2022-08-06T14:42:34;1.73;;;1.13;;
71236;SDS011;58984;51.960;5.582;2022-08-06T14:45:18;1.02;;;0.93;;
71236;SDS011;58984;51.960;5.582;2022-08-06T14:47:43;1.63;;;1.10;;
71236;SDS011;58984;51.960;5.582;2022-08-06T14:50:09;1.30;;;0.80;;
71236;SDS011;58984;51.960;5.582;2022-08-06T14:52:34;1.08;;;0.98;;
71236;SDS011;58984;51.960;5.582;2022-08-06T14:55:00;1.30;;;1.00;;
71236;SDS011;58984;51.960;5.582;2022-08-06T14:57:26;1.90;;;1.27;;
71236;SDS011;58984;51.960;5.582;2022-08-06T14:59:52;2.10;;;1.00;;
71236;SDS011;58984;51.960;5.582;2022-08-06T15:02:21;2.38;;;0.95;;
71236;SDS011;58984;51.960;5.582;2022-08-06T15:04:49;1.08;;;0.98;;
71236;SDS011;58984;51.960;5.582;2022-08-06T15:07:14;1.33;;;0.82;;
71236;SDS011;58984;51.960;5.582;2022-08-06T15:09:40;0.90;;;0.70;;
71236;SDS011;58984;51.960;5.582;2022-08-06T15:12:06;1.42;;;0.88;;
71236;SDS011;58984;51.960;5.582;2022-08-06T15:14:31;1.05;;;0.90;;
71236;SDS011;58984;51.960;5.582;2022-08-06T15:16:57;1.00;;;0.90;;
71236;SDS011;58984;51.960;5.582;2022-08-06T15:19:23;2.33;;;0.88;;
71236;SDS011;58984;51.960;5.582;2022-08-06T15:21:48;1.55;;;1.00;;
71236;SDS011;58984;51.960;5.582;2022-08-06T15:24:14;0.95;;;0.80;;
71236;SDS011;58984;51.960;5.582;2022-08-06T15:26:40;1.98;;;0.80;;
71236;SDS011;58984;51.960;5.582;2022-08-06T15:29:06;1.13;;;0.80;;
71236;SDS011;58984;51.960;5.582;2022-08-06T15:31:32;1.67;;;0.68;;
71236;SDS011;58984;51.960;5.582;2022-08-06T15:33:58;1.88;;;0.90;;
71236;SDS011;58984;51.960;5.582;2022-08-06T15:36:24;1.02;;;0.70;;
71236;SDS011;58984;51.960;5.582;2022-08-06T15:38:50;1.33;;;0.90;;
71236;SDS011;58984;51.960;5.582;2022-08-06T15:41:18;1.35;;;1.00;;
71236;SDS011;58984;51.960;5.582;2022-08-06T15:43:45;1.75;;;0.82;;
71236;SDS011;58984;51.960;5.582;2022-08-06T15:46:11;1.42;;;0.80;;
71236;SDS011;58984;51.960;5.582;2022-08-06T15:48:38;1.23;;;0.90;;
71236;SDS011;58984;51.960;5.582;2022-08-06T15:51:04;3.60;;;1.20;;
71236;SDS011;58984;51.960;5.582;2022-08-06T15:53:29;0.80;;;0.80;;
71236;SDS011;58984;51.960;5.582;2022-08-06T15:55:55;3.55;;;1.10;;